Time;durP1;ratioP1;P1;durP2;ratioP2;P2;SDS_P1;SDS_P2;PMS_P1;PMS_P2;Temp;Humidity;BMP_temperature;BMP_pressure;BME280_temperature;BME280_humidity;BME280_pressure;Samples;Min_cycle;Max_cycle;Signal;HPM_P1;HPM_P2
2023/06/03 00:02:13;;;;;;;4.95;2.58;;;18.50;97.60;;;;;;7384349;19;20169;-76
2023/06/03 00:04:42;;;;;;;4.88;2.17;;;18.40;97.80;;;;;;7384778;19;20579;-77
2023/06/03 00:07:08;;;;;;;10.23;2.55;;;18.30;98.00;;;;;;7387471;19;20138;-78
2023/06/03 00:09:34;;;;;;;8.10;2.72;;;18.40;97.90;;;;;;7384032;19;20411;-77
2023/06/03 00:12:00;;;;;;;4.78;2.30;;;18.40;98.00;;;;;;7381861;19;20148;-77
2023/06/03 00:14:26;;;;;;;4.35;2.00;;;18.30;98.20;;;;;;7384083;19;20123;-77
2023/06/03 00:16:52;;;;;;;5.05;2.67;;;18.20;98.50;;;;;;7386157;19;20138;-77
2023/06/03 00:19:18;;;;;;;7.28;2.15;;;18.20;98.70;;;;;;7387184;19;20131;-78
2023/06/03 00:21:45;;;;;;;4.95;2.40;;;18.20;98.70;;;;;;7390979;19;20169;-78
2023/06/03 00:24:13;;;;;;;5.45;2.22;;;18.10;98.90;;;;;;7390404;19;20146;-77
2023/06/03 00:26:39;;;;;;;7.25;2.63;;;18.10;99.10;;;;;;7390569;19;20173;-77
2023/06/03 00:29:04;;;;;;;13.65;2.75;;;18.10;99.10;;;;;;7390565;19;20151;-77
2023/06/03 00:31:30;;;;;;;5.32;2.72;;;18.10;99.30;;;;;;7391453;19;20123;-77
2023/06/03 00:33:56;;;;;;;5.28;2.25;;;18.00;99.40;;;;;;7390174;19;20219;-77
2023/06/03 00:36:22;;;;;;;5.40;2.10;;;18.10;99.40;;;;;;7388167;19;20497;-78
2023/06/03 00:38:47;;;;;;;5.15;2.20;;;18.10;99.60;;;;;;7387291;19;20161;-77
2023/06/03 00:41:13;;;;;;;5.32;1.90;;;18.10;99.50;;;;;;7390454;19;20143;-76
2023/06/03 00:43:39;;;;;;;7.90;2.28;;;18.00;99.70;;;;;;7386217;19;20154;-77
2023/06/03 00:46:08;;;;;;;5.53;2.25;;;18.00;99.90;;;;;;7391059;19;20897;-77
2023/06/03 00:48:34;;;;;;;6.13;2.20;;;18.10;99.90;;;;;;7389866;19;20142;-77
2023/06/03 00:51:00;;;;;;;6.88;2.83;;;18.00;99.90;;;;;;7388733;19;20451;-77
2023/06/03 00:53:26;;;;;;;4.18;2.05;;;18.00;99.90;;;;;;7389466;19;20150;-77
2023/06/03 00:55:52;;;;;;;6.68;2.17;;;17.90;99.90;;;;;;7392235;19;20500;-77
2023/06/03 00:58:18;;;;;;;4.70;1.90;;;17.80;99.90;;;;;;7384400;19;20143;-78
2023/06/03 01:00:43;;;;;;;7.35;2.30;;;17.80;99.90;;;;;;7389243;19;20150;-76
2023/06/03 01:03:13;;;;;;;4.80;2.30;;;17.90;99.90;;;;;;7391820;19;20187;-77
2023/06/03 01:05:40;;;;;;;5.38;2.10;;;17.90;99.90;;;;;;7389010;19;20160;-76
2023/06/03 01:08:20;;;;;;;5.53;2.10;;;17.90;99.90;;;;;;7388873;19;20126;-78
2023/06/03 01:11:07;;;;;;;6.45;2.50;;;17.90;99.90;;;;;;7390256;19;20138;-76
2023/06/03 01:13:49;;;;;;;5.50;2.70;;;17.90;99.90;;;;;;7391097;19;20139;-76
2023/06/03 01:16:17;;;;;;;6.13;2.30;;;17.90;99.90;;;;;;7389973;19;20164;-77
2023/06/03 01:18:46;;;;;;;6.75;2.67;;;17.80;99.90;;;;;;7385584;19;20131;-76
2023/06/03 01:21:13;;;;;;;6.97;2.33;;;17.80;99.90;;;;;;7391114;19;20134;-76
2023/06/03 01:23:44;;;;;;;4.85;2.35;;;17.90;99.90;;;;;;7387098;19;20145;-77
2023/06/03 01:26:11;;;;;;;7.30;2.40;;;17.90;99.90;;;;;;7390463;19;20151;-76
2023/06/03 01:28:38;;;;;;;4.13;2.38;;;17.90;99.90;;;;;;7389819;19;21713;-76
2023/06/03 01:31:05;;;;;;;5.68;2.20;;;17.90;99.90;;;;;;7387333;19;20519;-76
2023/06/03 01:33:33;;;;;;;3.90;1.90;;;17.70;99.90;;;;;;7391474;19;20137;-75
2023/06/03 01:36:00;;;;;;;6.35;2.15;;;17.80;99.90;;;;;;7388987;19;20138;-76
2023/06/03 01:38:27;;;;;;;4.95;2.47;;;17.70;99.90;;;;;;7380249;19;20130;-76
2023/06/03 01:40:53;;;;;;;9.88;2.67;;;17.70;99.90;;;;;;7390968;19;20149;-76
2023/06/03 01:43:19;;;;;;;4.53;2.28;;;17.70;99.90;;;;;;7385843;19;20150;-77
2023/06/03 01:45:45;;;;;;;6.35;2.10;;;17.70;99.90;;;;;;7388702;19;20670;-77
2023/06/03 01:48:11;;;;;;;7.28;2.20;;;17.70;99.90;;;;;;7389732;19;20146;-77
2023/06/03 01:50:43;;;;;;;3.45;2.17;;;17.70;99.90;;;;;;7389957;19;20472;-77
2023/06/03 01:53:09;;;;;;;5.93;1.92;;;17.70;99.90;;;;;;7389210;19;20143;-76
2023/06/03 01:55:35;;;;;;;3.83;1.60;;;17.60;99.90;;;;;;7391071;19;20151;-76
2023/06/03 01:58:03;;;;;;;4.53;2.13;;;17.40;99.90;;;;;;7386778;19;20204;-76
2023/06/03 02:00:28;;;;;;;6.25;2.28;;;17.40;99.90;;;;;;7388674;19;20162;-76
2023/06/03 02:02:54;;;;;;;5.35;2.35;;;17.60;99.90;;;;;;7386918;19;20591;-76
2023/06/03 02:05:20;;;;;;;5.25;2.00;;;17.60;99.90;;;;;;7391123;19;20176;-76
2023/06/03 02:07:46;;;;;;;4.38;2.00;;;17.70;99.90;;;;;;7390390;19;20160;-77
2023/06/03 02:10:11;;;;;;;4.78;2.38;;;17.40;99.90;;;;;;7388697;19;20146;-76
2023/06/03 02:12:37;;;;;;;5.47;2.25;;;17.60;99.90;;;;;;7390364;19;20135;-76
2023/06/03 02:15:03;;;;;;;8.93;2.30;;;17.50;99.90;;;;;;7391261;19;20131;-77
2023/06/03 02:17:29;;;;;;;2.95;1.75;;;17.60;99.90;;;;;;7388328;19;20143;-77
2023/06/03 02:19:57;;;;;;;5.97;2.17;;;17.60;99.90;;;;;;7387881;19;20142;-76
2023/06/03 02:22:23;;;;;;;5.53;1.80;;;17.60;99.90;;;;;;7390813;19;20138;-76
2023/06/03 02:24:49;;;;;;;5.80;2.47;;;17.60;99.90;;;;;;7388995;19;20147;-76
2023/06/03 02:27:24;;;;;;;6.03;2.25;;;17.60;99.90;;;;;;7388781;19;20183;-78
2023/06/03 02:29:50;;;;;;;7.32;2.20;;;17.40;99.90;;;;;;7386963;19;21059;-76
2023/06/03 02:32:18;;;;;;;6.82;2.17;;;17.40;99.90;;;;;;7389028;19;20778;-76
2023/06/03 02:34:43;;;;;;;4.70;2.17;;;17.40;99.90;;;;;;7390170;19;20131;-76
2023/06/03 02:37:10;;;;;;;6.85;2.38;;;17.50;99.90;;;;;;7386372;19;20126;-76
2023/06/03 02:39:36;;;;;;;5.57;1.92;;;17.60;99.90;;;;;;7383790;19;20136;-76
2023/06/03 02:42:02;;;;;;;4.75;2.20;;;17.50;99.90;;;;;;7390147;19;20169;-77
2023/06/03 02:44:29;;;;;;;4.25;2.40;;;17.40;99.90;;;;;;7392231;19;20662;-76
2023/06/03 02:46:55;;;;;;;4.13;2.20;;;17.30;99.90;;;;;;7392384;19;20143;-77
2023/06/03 02:49:20;;;;;;;8.02;2.13;;;17.30;99.90;;;;;;7396338;19;20160;-77
2023/06/03 02:51:46;;;;;;;6.90;2.17;;;17.40;99.90;;;;;;7395126;19;20135;-77
2023/06/03 02:54:12;;;;;;;7.45;2.50;;;17.40;99.90;;;;;;7393647;19;20147;-77
2023/06/03 02:56:38;;;;;;;3.75;2.22;;;17.40;99.90;;;;;;7393687;19;20218;-76
2023/06/03 02:59:05;;;;;;;6.88;2.33;;;17.50;99.90;;;;;;7395130;19;20204;-76
2023/06/03 03:01:31;;;;;;;5.13;2.47;;;17.20;99.90;;;;;;7395366;19;20154;-76
2023/06/03 03:03:57;;;;;;;5.82;2.67;;;17.30;99.90;;;;;;7391136;19;20134;-75
2023/06/03 03:06:24;;;;;;;4.45;1.90;;;17.30;99.90;;;;;;7388071;19;20134;-76
2023/06/03 03:08:51;;;;;;;4.55;2.30;;;17.40;99.90;;;;;;7388842;19;20206;-76
2023/06/03 03:11:18;;;;;;;7.85;2.40;;;17.30;99.90;;;;;;7386709;19;20134;-76
2023/06/03 03:13:44;;;;;;;11.55;2.88;;;17.30;99.90;;;;;;7385729;19;20578;-76
2023/06/03 03:16:11;;;;;;;12.23;3.33;;;17.20;99.90;;;;;;7387099;19;20133;-77
2023/06/03 03:18:37;;;;;;;5.05;2.63;;;17.20;99.90;;;;;;7383995;19;20855;-76
2023/06/03 03:21:04;;;;;;;6.82;2.53;;;17.30;99.90;;;;;;7387267;19;20139;-76
2023/06/03 03:23:30;;;;;;;4.68;2.20;;;17.10;99.90;;;;;;7386881;19;20166;-76
2023/06/03 03:25:57;;;;;;;5.15;2.08;;;17.10;99.90;;;;;;7384061;19;20180;-76
2023/06/03 03:28:23;;;;;;;5.30;2.28;;;17.00;99.90;;;;;;7387788;19;20139;-76
2023/06/03 03:30:49;;;;;;;8.07;2.72;;;17.00;99.90;;;;;;7384028;19;20135;-76
2023/06/03 03:33:18;;;;;;;4.75;1.90;;;17.00;99.90;;;;;;7387615;19;20214;-77
2023/06/03 03:35:44;;;;;;;5.28;2.50;;;17.00;99.90;;;;;;7384541;19;20583;-76
2023/06/03 03:38:10;;;;;;;3.42;2.15;;;17.00;99.90;;;;;;7383762;19;20139;-76
2023/06/03 03:40:37;;;;;;;7.07;2.35;;;17.10;99.90;;;;;;7386045;19;20150;-76
2023/06/03 03:43:03;;;;;;;6.20;2.10;;;17.10;99.90;;;;;;7383728;19;20150;-76
2023/06/03 03:45:32;;;;;;;4.40;2.50;;;17.10;99.90;;;;;;7385064;19;20180;-75
2023/06/03 03:48:04;;;;;;;5.28;2.33;;;17.10;99.90;;;;;;7384780;19;20139;-76
2023/06/03 03:50:50;;;;;;;6.47;2.55;;;17.20;99.90;;;;;;7385153;19;20191;-76
2023/06/03 03:53:18;;;;;;;5.68;2.65;;;17.20;99.90;;;;;;7384351;19;20146;-76
2023/06/03 03:55:46;;;;;;;4.47;2.58;;;17.20;99.90;;;;;;7390364;19;20143;-76
2023/06/03 03:58:42;;;;;;;4.32;2.05;;;17.20;99.90;;;;;;7390856;19;20142;-76
2023/06/03 04:01:12;;;;;;;7.18;2.38;;;17.20;99.90;;;;;;7393307;19;20599;-77
2023/06/03 04:03:42;;;;;;;4.43;2.40;;;17.10;99.90;;;;;;7393678;19;20142;-77
2023/06/03 04:06:13;;;;;;;5.60;2.28;;;17.00;99.90;;;;;;7390795;19;20226;-77
2023/06/03 04:08:46;;;;;;;8.02;2.60;;;17.00;99.90;;;;;;7392045;19;20142;-76
2023/06/03 04:11:27;;;;;;;5.78;2.42;;;17.00;99.90;;;;;;7392306;19;20159;-77
2023/06/03 04:13:58;;;;;;;7.43;2.83;;;17.10;99.90;;;;;;7392172;19;20145;-76
2023/06/03 04:16:45;;;;;;;6.40;2.35;;;17.00;99.90;;;;;;7388468;19;20149;-77
2023/06/03 04:19:20;;;;;;;5.38;2.40;;;17.20;99.90;;;;;;7391465;19;20594;-76
2023/06/03 04:21:46;;;;;;;7.63;2.70;;;16.90;99.90;;;;;;7389383;19;20142;-77
2023/06/03 04:24:12;;;;;;;4.35;2.40;;;16.80;99.90;;;;;;7389796;19;20123;-77
2023/06/03 04:26:38;;;;;;;4.00;2.30;;;16.70;99.90;;;;;;7391605;19;20536;-77
2023/06/03 04:29:04;;;;;;;5.32;2.55;;;16.70;99.90;;;;;;7392611;19;20164;-77
2023/06/03 04:31:30;;;;;;;5.63;2.15;;;16.70;99.90;;;;;;7390349;19;20158;-77
2023/06/03 04:33:56;;;;;;;7.30;2.45;;;16.70;99.90;;;;;;7392380;19;20165;-77
2023/06/03 04:36:22;;;;;;;4.90;2.40;;;16.70;99.90;;;;;;7390699;19;20928;-76
2023/06/03 04:38:48;;;;;;;4.20;2.28;;;16.70;99.90;;;;;;7388279;19;20142;-77
2023/06/03 04:41:15;;;;;;;9.15;2.92;;;16.80;99.90;;;;;;7389961;19;20149;-77
2023/06/03 04:43:43;;;;;;;5.93;2.45;;;16.70;99.90;;;;;;7388181;19;20156;-77
2023/06/03 04:46:10;;;;;;;5.78;2.53;;;16.70;99.90;;;;;;7389436;19;20139;-77
2023/06/03 04:48:36;;;;;;;5.65;2.63;;;16.60;99.90;;;;;;7390518;19;20202;-77
2023/06/03 04:51:07;;;;;;;5.80;2.63;;;16.60;99.90;;;;;;7393063;19;20209;-77
2023/06/03 04:53:33;;;;;;;6.32;2.65;;;16.60;99.90;;;;;;7388072;19;20157;-77
2023/06/03 04:56:03;;;;;;;6.30;2.38;;;16.50;99.90;;;;;;7393407;19;20159;-77
2023/06/03 04:58:28;;;;;;;5.53;2.67;;;16.60;99.90;;;;;;7388129;19;20606;-78
2023/06/03 05:00:54;;;;;;;6.85;2.78;;;16.70;99.90;;;;;;7391187;19;20158;-77
2023/06/03 05:03:20;;;;;;;5.95;2.85;;;16.60;99.90;;;;;;7388754;19;20145;-77
2023/06/03 05:05:45;;;;;;;9.30;2.60;;;16.60;99.90;;;;;;7390176;19;20165;-77
2023/06/03 05:08:12;;;;;;;4.63;2.55;;;16.60;99.90;;;;;;7390884;19;20123;-77
2023/06/03 05:10:37;;;;;;;7.15;2.67;;;16.60;99.90;;;;;;7393093;19;20134;-77
2023/06/03 05:13:05;;;;;;;6.93;2.92;;;16.70;99.90;;;;;;7390115;19;20766;-77
2023/06/03 05:15:33;;;;;;;5.53;2.85;;;16.70;99.90;;;;;;7390189;19;20249;-78
2023/06/03 05:18:02;;;;;;;5.75;2.63;;;16.70;99.90;;;;;;7389546;19;20258;-77
2023/06/03 05:20:30;;;;;;;4.97;2.33;;;16.80;99.90;;;;;;7391962;19;20262;-76
2023/06/03 05:22:55;;;;;;;5.05;2.47;;;16.70;99.90;;;;;;7389842;19;20145;-76
2023/06/03 05:25:22;;;;;;;8.45;2.58;;;16.70;99.90;;;;;;7391031;19;20642;-77
2023/06/03 05:27:48;;;;;;;5.18;2.53;;;16.70;99.90;;;;;;7388789;19;20911;-75
2023/06/03 05:30:14;;;;;;;7.43;2.85;;;16.90;99.90;;;;;;7388767;19;20122;-76
2023/06/03 05:32:43;;;;;;;3.60;2.80;;;16.90;99.90;;;;;;7389560;19;20131;-77
2023/06/03 05:35:09;;;;;;;5.78;2.75;;;17.00;99.90;;;;;;7389778;19;20221;-76
2023/06/03 05:37:35;;;;;;;4.57;2.20;;;16.90;99.90;;;;;;7387946;19;20130;-77
2023/06/03 05:40:01;;;;;;;5.90;2.35;;;17.00;99.90;;;;;;7392789;19;20142;-76
2023/06/03 05:42:27;;;;;;;6.60;2.72;;;17.10;99.90;;;;;;7387691;19;20257;-77
2023/06/03 05:44:53;;;;;;;3.17;2.17;;;17.10;99.90;;;;;;7390151;19;20150;-77
2023/06/03 05:47:19;;;;;;;6.10;3.10;;;17.10;99.90;;;;;;7391101;19;20153;-76
2023/06/03 05:49:44;;;;;;;5.28;2.55;;;17.20;99.90;;;;;;7388806;19;20143;-77
2023/06/03 05:52:10;;;;;;;8.52;2.80;;;17.20;99.90;;;;;;7388448;19;20158;-78
2023/06/03 05:54:36;;;;;;;4.75;2.70;;;17.20;99.90;;;;;;7390788;19;20859;-76
2023/06/03 05:57:02;;;;;;;6.70;2.97;;;17.10;99.90;;;;;;7387746;19;20185;-76
2023/06/03 05:59:27;;;;;;;4.40;2.35;;;17.20;99.90;;;;;;7388328;19;20150;-76
2023/06/03 06:01:53;;;;;;;7.13;2.90;;;17.20;99.90;;;;;;7387852;19;20645;-77
2023/06/03 06:04:19;;;;;;;5.93;2.80;;;17.30;99.90;;;;;;7387528;19;20142;-76
2023/06/03 06:06:45;;;;;;;6.63;2.67;;;17.20;99.90;;;;;;7390868;19;20157;-76
2023/06/03 06:09:10;;;;;;;6.72;2.25;;;17.30;99.90;;;;;;7388436;19;20613;-76
2023/06/03 06:11:36;;;;;;;5.30;2.83;;;17.60;99.90;;;;;;7387882;19;20535;-81
2023/06/03 06:14:02;;;;;;;5.32;2.60;;;18.10;99.90;;;;;;7388647;19;20154;-82
2023/06/03 06:16:28;;;;;;;5.18;2.00;;;18.60;99.90;;;;;;7386896;19;20179;-81
2023/06/03 06:18:53;;;;;;;5.68;2.72;;;19.80;99.90;;;;;;7386949;19;20599;-81
2023/06/03 06:21:19;;;;;;;6.70;3.08;;;21.90;98.70;;;;;;7388552;19;20139;-81
2023/06/03 06:23:45;;;;;;;6.97;2.58;;;23.40;95.60;;;;;;7389942;19;20134;-80
2023/06/03 06:26:16;;;;;;;3.67;2.40;;;24.20;93.80;;;;;;7388723;19;20241;-80
2023/06/03 06:28:42;;;;;;;6.15;2.40;;;24.10;93.50;;;;;;7391223;19;20126;-82
2023/06/03 06:31:10;;;;;;;5.28;2.40;;;24.90;91.90;;;;;;7387920;19;20134;-80
2023/06/03 06:33:36;;;;;;;4.93;2.40;;;25.20;91.60;;;;;;7388299;19;20555;-82
2023/06/03 06:36:11;;;;;;;6.03;2.25;;;26.00;90.20;;;;;;7393156;19;20676;-82
2023/06/03 06:38:37;;;;;;;5.32;2.42;;;26.70;87.10;;;;;;7387313;19;20141;-83
2023/06/03 06:41:03;;;;;;;3.95;2.10;;;27.10;85.10;;;;;;7389559;19;20754;-79
2023/06/03 06:43:31;;;;;;;5.43;2.35;;;26.50;84.40;;;;;;7384165;19;20150;-83
2023/06/03 06:45:57;;;;;;;4.70;2.33;;;25.90;87.90;;;;;;7386042;19;20154;-79
2023/06/03 06:48:23;;;;;;;3.55;2.45;;;27.30;84.10;;;;;;7386379;19;20143;-79
2023/06/03 06:50:55;;;;;;;7.18;2.83;;;27.60;82.10;;;;;;7383096;19;20147;-79
2023/06/03 06:53:26;;;;;;;6.40;2.70;;;27.30;81.80;;;;;;7383937;19;20160;-81
2023/06/03 06:55:53;;;;;;;3.88;2.05;;;26.50;82.70;;;;;;7388240;19;20130;-81
2023/06/03 06:58:19;;;;;;;4.75;2.35;;;26.00;84.10;;;;;;7385471;19;20167;-80
2023/06/03 07:00:47;;;;;;;3.92;2.13;;;25.80;85.00;;;;;;7388906;19;20158;-80
2023/06/03 07:03:17;;;;;;;7.97;3.15;;;26.30;84.20;;;;;;7390581;19;20146;-80
2023/06/03 07:05:45;;;;;;;5.60;2.60;;;26.40;83.10;;;;;;7388722;19;20152;-79
2023/06/03 07:08:11;;;;;;;5.07;2.67;;;25.90;84.50;;;;;;7388380;19;20145;-78
2023/06/03 07:10:37;;;;;;;6.70;2.70;;;25.80;84.30;;;;;;7388581;19;20135;-80
2023/06/03 07:13:03;;;;;;;5.05;2.80;;;25.90;84.30;;;;;;7388400;19;20152;-78
2023/06/03 07:15:29;;;;;;;5.00;2.90;;;25.30;85.00;;;;;;7389170;19;20597;-79
2023/06/03 07:17:56;;;;;;;6.93;3.53;;;24.90;86.40;;;;;;7384674;19;20153;-80
2023/06/03 07:20:32;;;;;;;5.50;2.22;;;25.00;86.40;;;;;;7388814;19;20134;-79
2023/06/03 07:22:59;;;;;;;3.67;2.60;;;25.10;86.70;;;;;;7389913;19;20862;-80
2023/06/03 07:25:34;;;;;;;6.13;3.40;;;25.50;85.50;;;;;;7390450;19;20144;-80
2023/06/03 07:28:02;;;;;;;3.83;2.50;;;25.10;86.30;;;;;;7391523;19;20558;-80
2023/06/03 07:30:28;;;;;;;7.05;2.80;;;24.70;87.70;;;;;;7396557;19;20134;-78
2023/06/03 07:32:58;;;;;;;6.15;2.85;;;24.50;88.20;;;;;;7394179;19;20130;-80
2023/06/03 07:35:25;;;;;;;6.07;2.78;;;24.00;89.60;;;;;;7394511;19;20617;-78
2023/06/03 07:37:51;;;;;;;4.22;3.20;;;23.70;90.10;;;;;;7391785;19;20145;-79
2023/06/03 07:40:17;;;;;;;3.60;2.97;;;23.90;90.20;;;;;;7392822;19;20127;-79
2023/06/03 07:42:44;;;;;;;6.15;2.67;;;23.80;90.10;;;;;;7390462;19;20168;-79
2023/06/03 07:45:15;;;;;;;7.53;3.83;;;23.70;90.60;;;;;;7390593;19;20514;-79
2023/06/03 07:47:41;;;;;;;4.55;2.85;;;24.10;90.20;;;;;;7393605;19;20134;-79
2023/06/03 07:50:23;;;;;;;5.45;2.95;;;24.30;90.20;;;;;;7392768;19;20160;-79
2023/06/03 07:53:12;;;;;;;4.20;2.47;;;24.70;89.00;;;;;;7391541;19;20150;-80
2023/06/03 07:55:43;;;;;;;4.38;2.65;;;23.90;89.70;;;;;;7392779;19;20190;-72
2023/06/03 07:58:12;;;;;;;5.40;2.58;;;23.80;90.40;;;;;;7391669;19;20161;-72
2023/06/03 08:00:54;;;;;;;5.22;2.90;;;24.00;90.40;;;;;;7390796;19;20149;-73
2023/06/03 08:03:23;;;;;;;5.63;2.65;;;24.20;90.60;;;;;;7391634;19;20546;-73
2023/06/03 08:05:53;;;;;;;5.68;3.17;;;24.20;90.10;;;;;;7394014;19;20139;-73
2023/06/03 08:08:19;;;;;;;5.85;2.60;;;24.30;90.20;;;;;;7390913;19;20457;-73
2023/06/03 08:10:49;;;;;;;6.00;2.50;;;24.20;90.10;;;;;;7394506;19;20150;-73
2023/06/03 08:13:17;;;;;;;4.70;2.75;;;24.30;90.20;;;;;;7389909;19;20586;-73
2023/06/03 08:15:43;;;;;;;5.63;2.67;;;24.50;90.10;;;;;;7394281;19;20596;-72
2023/06/03 08:18:23;;;;;;;6.97;2.75;;;24.30;90.10;;;;;;7390930;19;20301;-72
2023/06/03 08:20:48;;;;;;;6.22;3.10;;;24.30;90.30;;;;;;7391743;19;20598;-73
2023/06/03 08:23:16;;;;;;;6.53;2.55;;;24.30;90.20;;;;;;7391710;19;20147;-74
2023/06/03 08:25:42;;;;;;;6.03;2.50;;;24.50;90.20;;;;;;7390935;19;20134;-71
2023/06/03 08:28:08;;;;;;;6.93;2.50;;;24.20;90.30;;;;;;7391751;19;20225;-72
2023/06/03 08:30:34;;;;;;;7.95;3.25;;;24.10;90.90;;;;;;7391158;19;20155;-72
2023/06/03 08:33:00;;;;;;;7.70;2.53;;;24.00;90.90;;;;;;7390188;19;20487;-72
2023/06/03 08:35:26;;;;;;;5.15;2.70;;;24.30;90.80;;;;;;7391689;19;20197;-72
2023/06/03 08:37:52;;;;;;;4.57;2.80;;;24.80;90.40;;;;;;7391540;19;20246;-72
2023/06/03 08:40:21;;;;;;;5.03;3.00;;;25.20;89.70;;;;;;7389202;19;20147;-73
2023/06/03 08:42:48;;;;;;;5.43;2.97;;;25.20;89.20;;;;;;7389651;19;20184;-72
2023/06/03 08:45:18;;;;;;;7.70;3.35;;;25.00;89.40;;;;;;7392088;19;20138;-72
2023/06/03 08:48:03;;;;;;;7.13;2.63;;;24.70;90.10;;;;;;7390967;19;20155;-73
2023/06/03 08:50:33;;;;;;;6.63;2.90;;;24.90;90.50;;;;;;7390972;19;20138;-73
2023/06/03 08:53:03;;;;;;;7.93;3.15;;;25.20;90.30;;;;;;7390512;19;20237;-72
2023/06/03 08:55:30;;;;;;;8.50;3.83;;;25.20;89.90;;;;;;7391657;19;20221;-73
2023/06/03 08:58:07;;;;;;;6.03;2.95;;;25.20;90.20;;;;;;7388979;19;20143;-73
2023/06/03 09:00:34;;;;;;;6.47;3.20;;;25.00;89.40;;;;;;7391703;19;20139;-72
2023/06/03 09:03:03;;;;;;;12.00;3.72;;;24.50;90.40;;;;;;7389385;19;20134;-73
2023/06/03 09:05:29;;;;;;;5.25;3.40;;;24.30;90.70;;;;;;7391875;19;20169;-73
2023/06/03 09:07:56;;;;;;;6.70;3.42;;;24.20;91.10;;;;;;7391094;19;20159;-72
2023/06/03 09:10:22;;;;;;;7.20;3.35;;;24.30;90.90;;;;;;7391779;19;20453;-72
2023/06/03 09:12:48;;;;;;;6.38;3.65;;;24.20;91.00;;;;;;7389648;19;20173;-74
2023/06/03 09:15:14;;;;;;;6.63;3.28;;;23.90;91.40;;;;;;7392744;19;20213;-73
2023/06/03 09:17:44;;;;;;;10.10;3.85;;;23.80;91.50;;;;;;7389894;19;20546;-73
2023/06/03 09:20:11;;;;;;;11.00;3.88;;;23.70;91.90;;;;;;7392821;19;20508;-73
2023/06/03 09:22:40;;;;;;;4.60;2.47;;;23.70;92.00;;;;;;7391162;19;20137;-72
2023/06/03 09:25:07;;;;;;;6.65;3.33;;;23.80;91.80;;;;;;7391357;19;20150;-73
2023/06/03 09:27:33;;;;;;;9.38;5.50;;;23.70;92.40;;;;;;7390185;19;20138;-73
2023/06/03 09:30:01;;;;;;;6.78;3.25;;;24.00;92.00;;;;;;7394268;19;20527;-72
2023/06/03 09:32:27;;;;;;;7.32;3.30;;;24.00;92.20;;;;;;7390436;19;20154;-73
2023/06/03 09:34:54;;;;;;;7.47;3.20;;;23.80;92.10;;;;;;7392224;19;20162;-73
2023/06/03 09:37:20;;;;;;;8.10;3.20;;;23.80;92.50;;;;;;7390585;19;20146;-73
2023/06/03 09:39:46;;;;;;;4.90;2.85;;;23.80;92.20;;;;;;7392487;19;20471;-73
2023/06/03 09:42:12;;;;;;;9.80;3.83;;;23.70;92.50;;;;;;7393843;19;20631;-74
2023/06/03 09:44:46;;;;;;;11.13;3.85;;;23.60;92.60;;;;;;7391186;19;20131;-73
2023/06/03 09:47:12;;;;;;;9.10;3.20;;;23.80;92.50;;;;;;7393554;19;20157;-73
2023/06/03 09:49:38;;;;;;;6.68;3.35;;;24.00;92.80;;;;;;7395908;19;20143;-72
2023/06/03 09:52:09;;;;;;;5.82;3.08;;;24.20;92.70;;;;;;7393306;19;20131;-73
2023/06/03 09:54:35;;;;;;;6.53;3.42;;;24.40;92.00;;;;;;7392952;19;20142;-73
2023/06/03 09:57:12;;;;;;;7.13;3.20;;;24.20;92.00;;;;;;7394910;19;20133;-73
2023/06/03 09:59:42;;;;;;;7.47;3.63;;;24.20;92.90;;;;;;7393679;19;20130;-72
2023/06/03 10:02:11;;;;;;;7.13;5.22;;;24.30;92.40;;;;;;7390723;19;20484;-72
2023/06/03 10:04:44;;;;;;;6.50;4.05;;;24.40;92.50;;;;;;7390875;19;20525;-72
2023/06/03 10:07:17;;;;;;;7.15;3.35;;;24.50;92.00;;;;;;7390587;19;20508;-73
2023/06/03 10:09:45;;;;;;;6.40;3.15;;;24.50;92.40;;;;;;7389229;19;20134;-73
2023/06/03 10:12:15;;;;;;;6.05;3.80;;;24.60;91.90;;;;;;7388519;19;20139;-74
2023/06/03 10:14:45;;;;;;;4.90;3.00;;;24.30;92.30;;;;;;7389468;19;20609;-73
2023/06/03 10:17:13;;;;;;;6.05;3.08;;;24.00;92.70;;;;;;7386322;19;20476;-73
2023/06/03 10:19:44;;;;;;;3.97;3.08;;;24.00;92.90;;;;;;7388970;19;20134;-73
2023/06/03 10:22:13;;;;;;;9.20;3.65;;;24.00;93.00;;;;;;7389019;19;20130;-73
2023/06/03 10:24:43;;;;;;;4.53;3.30;;;23.90;93.10;;;;;;7387553;19;20529;-73
2023/06/03 10:27:15;;;;;;;7.07;2.92;;;24.00;93.30;;;;;;7388072;19;20138;-73
2023/06/03 10:29:40;;;;;;;7.95;3.10;;;24.20;93.00;;;;;;7390790;19;20122;-73
2023/06/03 10:32:08;;;;;;;8.77;3.40;;;24.30;92.60;;;;;;7389312;19;20130;-73
2023/06/03 10:34:41;;;;;;;6.30;3.80;;;24.30;92.70;;;;;;7390151;19;20526;-73
2023/06/03 10:37:09;;;;;;;7.00;3.67;;;24.30;92.80;;;;;;7389665;19;20130;-73
2023/06/03 10:39:35;;;;;;;9.25;4.88;;;24.30;93.00;;;;;;7388258;19;20249;-74
2023/06/03 10:42:09;;;;;;;8.57;3.90;;;24.40;92.90;;;;;;7386406;19;20182;-73
2023/06/03 10:44:35;;;;;;;5.15;3.30;;;24.40;93.00;;;;;;7389330;19;20134;-72
2023/06/03 10:47:24;;;;;;;4.57;3.40;;;24.40;92.70;;;;;;7388660;19;20131;-74
2023/06/03 10:50:02;;;;;;;7.45;3.55;;;24.40;93.10;;;;;;7387662;19;20138;-73
2023/06/03 10:52:48;;;;;;;5.80;3.78;;;24.50;92.80;;;;;;7385328;19;20164;-73
2023/06/03 10:55:41;;;;;;;4.57;3.38;;;24.60;92.60;;;;;;7386881;19;20126;-73
2023/06/03 10:58:30;;;;;;;7.78;3.60;;;24.60;92.80;;;;;;7388532;19;20550;-74
2023/06/03 11:00:57;;;;;;;6.88;3.53;;;24.70;92.30;;;;;;7385891;19;20135;-74
2023/06/03 11:03:31;;;;;;;6.50;3.85;;;24.60;92.30;;;;;;7385678;19;20230;-75
2023/06/03 11:06:19;;;;;;;6.22;3.78;;;24.60;92.50;;;;;;7387160;19;20602;-76
2023/06/03 11:09:08;;;;;;;4.53;3.35;;;24.60;92.20;;;;;;7386398;19;20154;-74
2023/06/03 11:11:59;;;;;;;7.15;3.92;;;24.60;92.40;;;;;;7387815;19;20524;-74
2023/06/03 11:14:24;;;;;;;5.63;3.28;;;24.80;92.10;;;;;;7386734;19;20214;-74
2023/06/03 11:16:55;;;;;;;5.10;3.10;;;25.00;91.20;;;;;;7388031;19;20147;-74
2023/06/03 11:19:36;;;;;;;5.43;3.22;;;25.20;90.90;;;;;;7387688;19;20134;-74
2023/06/03 11:22:08;;;;;;;5.60;3.30;;;25.20;90.50;;;;;;7386075;19;20141;-75
2023/06/03 11:24:43;;;;;;;6.18;3.13;;;25.20;90.50;;;;;;7387914;19;20500;-74
2023/06/03 11:27:18;;;;;;;3.60;3.00;;;25.10;90.70;;;;;;7388338;19;20138;-74
2023/06/03 11:29:48;;;;;;;4.28;3.03;;;25.00;90.60;;;;;;7387176;19;20474;-75
2023/06/03 11:32:15;;;;;;;5.95;4.10;;;25.00;90.70;;;;;;7386263;19;20131;-74
2023/06/03 11:34:41;;;;;;;5.63;3.70;;;25.20;90.60;;;;;;7387733;19;20130;-74
2023/06/03 11:37:07;;;;;;;8.10;4.43;;;25.20;90.20;;;;;;7385206;19;20594;-74
2023/06/03 11:40:08;;;;;;;5.03;3.42;;;25.30;90.10;;;;;;7387269;19;20138;-74
2023/06/03 11:42:46;;;;;;;5.22;3.63;;;25.20;90.20;;;;;;7382240;19;20173;-74
2023/06/03 11:45:25;;;;;;;7.78;3.80;;;25.30;90.60;;;;;;7386298;19;20490;-74
2023/06/03 11:47:55;;;;;;;7.28;4.30;;;25.50;90.80;;;;;;7387218;19;20138;-74
2023/06/03 11:50:33;;;;;;;6.25;3.55;;;25.60;90.60;;;;;;7384619;19;20145;-74
2023/06/03 11:53:00;;;;;;;8.77;4.03;;;25.70;90.50;;;;;;7385826;19;20145;-74
2023/06/03 11:55:28;;;;;;;5.35;3.45;;;25.80;89.40;;;;;;7386451;19;20135;-74
2023/06/03 11:57:56;;;;;;;11.05;4.40;;;25.90;89.10;;;;;;7383619;19;20158;-74
2023/06/03 12:00:22;;;;;;;6.18;3.42;;;25.90;89.80;;;;;;7384289;19;20138;-74
2023/06/03 12:02:48;;;;;;;11.20;4.53;;;25.90;89.60;;;;;;7385756;19;20143;-74
2023/06/03 12:05:15;;;;;;;8.18;3.70;;;25.70;89.60;;;;;;7384863;19;20154;-74
2023/06/03 12:07:43;;;;;;;5.50;3.30;;;25.50;89.40;;;;;;7385592;19;20162;-74
2023/06/03 12:10:11;;;;;;;5.95;3.33;;;25.40;90.00;;;;;;7384033;19;20139;-75
2023/06/03 12:12:52;;;;;;;8.32;3.92;;;25.20;90.30;;;;;;7386090;19;20894;-74
2023/06/03 12:15:19;;;;;;;5.05;3.28;;;25.20;90.00;;;;;;7388172;19;20153;-74
2023/06/03 12:17:45;;;;;;;5.25;3.33;;;25.20;90.00;;;;;;7390553;19;20165;-74
2023/06/03 12:20:26;;;;;;;3.50;2.95;;;24.90;90.10;;;;;;7392829;19;20126;-73
2023/06/03 12:23:03;;;;;;;5.88;3.65;;;25.00;90.40;;;;;;7392069;19;20144;-74
2023/06/03 12:25:29;;;;;;;5.07;3.42;;;25.10;90.60;;;;;;7389905;19;20139;-75
2023/06/03 12:27:56;;;;;;;3.72;2.85;;;25.30;90.30;;;;;;7391070;19;20142;-74
2023/06/03 12:30:29;;;;;;;5.32;3.53;;;25.50;89.70;;;;;;7390796;19;20134;-75
2023/06/03 12:32:57;;;;;;;10.00;4.53;;;25.60;88.50;;;;;;7391512;19;20139;-74
2023/06/03 12:35:27;;;;;;;5.18;3.35;;;25.70;88.80;;;;;;7390593;19;20157;-73
2023/06/03 12:38:07;;;;;;;4.68;3.67;;;25.60;89.50;;;;;;7391785;19;20849;-74
2023/06/03 12:40:35;;;;;;;5.20;3.30;;;25.60;89.50;;;;;;7388774;19;20153;-75
2023/06/03 12:43:02;;;;;;;6.22;3.90;;;25.60;88.70;;;;;;7388931;19;20505;-75
2023/06/03 12:45:28;;;;;;;6.45;3.50;;;25.80;88.30;;;;;;7390195;19;20142;-74
2023/06/03 12:47:55;;;;;;;7.43;3.83;;;25.90;88.00;;;;;;7391167;19;20153;-74
2023/06/03 12:50:22;;;;;;;4.70;3.50;;;25.90;87.70;;;;;;7389886;19;20181;-73
2023/06/03 12:52:49;;;;;;;5.75;4.00;;;25.90;88.00;;;;;;7389873;19;20141;-74
2023/06/03 12:55:17;;;;;;;5.47;3.15;;;25.90;87.80;;;;;;7390486;19;20205;-74